createdAt,value
2018-08-28T00:01:08.415Z,68.79
2018-08-28T00:02:08.424Z,68.98
2018-08-28T00:04:01.383Z,68.95
2018-08-28T00:05:01.356Z,68.95
2018-08-28T00:06:54.294Z,68.18
2018-08-28T00:07:54.307Z,68.31
2018-08-28T00:09:47.399Z,68.41
2018-08-28T00:10:47.420Z,68.60
2018-08-28T00:12:40.338Z,68.41
2018-08-28T00:13:40.350Z,68.41
2018-08-28T00:15:33.262Z,68.66
2018-08-28T00:16:33.286Z,69.27
2018-08-28T00:18:26.205Z,69.14
2018-08-28T00:19:26.216Z,69.14
2018-08-28T00:21:19.140Z,69.43
2018-08-28T00:22:19.150Z,69.14
2018-08-28T00:24:12.065Z,69.56
2018-08-28T00:25:12.087Z,68.79
2018-08-28T00:27:05.005Z,69.53
2018-08-28T00:28:05.023Z,69.53
2018-08-28T00:29:57.929Z,69.34
2018-08-28T00:30:57.949Z,69.34
2018-08-28T00:32:50.902Z,69.34
2018-08-28T00:33:50.914Z,69.62
2018-08-28T00:35:43.824Z,69.72
2018-08-28T00:36:43.845Z,69.91
2018-08-28T00:38:36.952Z,69.91
2018-08-28T00:39:36.969Z,69.72
2018-08-28T00:41:29.882Z,69.34
2018-08-28T00:42:29.899Z,69.72
2018-08-28T00:44:22.808Z,69.62
2018-08-28T00:45:22.853Z,69.14
2018-08-28T00:47:15.753Z,69.81
2018-08-28T00:48:15.766Z,69.81
2018-08-28T00:50:08.674Z,69.81
2018-08-28T00:51:08.698Z,69.81
2018-08-28T00:53:01.613Z,70.01
2018-08-28T00:54:01.631Z,69.62
2018-08-28T00:55:54.544Z,70.29
2018-08-28T00:56:54.566Z,70.01
2018-08-28T00:58:47.558Z,70.01
2018-08-28T00:59:47.501Z,70.10
2018-08-28T01:01:40.420Z,69.91
2018-08-28T01:02:40.434Z,69.81
2018-08-28T01:04:33.345Z,70.49
2018-08-28T01:05:33.367Z,70.20
2018-08-28T01:07:26.287Z,70.29
2018-08-28T01:08:26.298Z,70.49
2018-08-28T01:10:19.213Z,70.10
2018-08-28T01:11:19.235Z,71.06
2018-08-28T01:13:12.158Z,70.58
2018-08-28T01:14:12.169Z,70.78
2018-08-28T01:16:05.080Z,70.20
2018-08-28T01:17:05.101Z,70.20
2018-08-28T01:18:58.018Z,70.49
2018-08-28T01:19:58.033Z,70.49
2018-08-28T01:21:50.950Z,70.68
2018-08-28T01:22:50.964Z,70.87
2018-08-28T01:24:43.890Z,70.20
2018-08-28T01:25:43.898Z,70.29
2018-08-28T01:27:36.824Z,70.39
2018-08-28T01:28:36.833Z,69.91
2018-08-28T01:30:29.744Z,70.52
2018-08-28T01:31:29.764Z,69.62
2018-08-28T01:33:22.684Z,70.04
2018-08-28T01:34:22.698Z,70.49
2018-08-28T01:36:15.610Z,70.29
2018-08-28T01:37:15.632Z,70.49
2018-08-28T01:39:08.547Z,70.39
2018-08-28T01:40:08.563Z,70.39
2018-08-28T01:42:01.487Z,69.85
2018-08-28T01:43:01.498Z,70.01
2018-08-28T01:44:54.428Z,70.72
2018-08-28T01:45:54.440Z,70.58
2018-08-28T01:47:47.353Z,70.43
2018-08-28T01:48:47.361Z,70.29
2018-08-28T01:50:40.280Z,70.68
2018-08-28T01:51:40.299Z,70.72
2018-08-28T01:53:33.216Z,70.90
2018-08-28T01:54:33.231Z,70.72
2018-08-28T01:56:26.152Z,70.49
2018-08-28T01:57:26.179Z,70.29
2018-08-28T01:59:19.092Z,70.43
2018-08-28T02:00:19.108Z,70.52
2018-08-28T02:02:12.215Z,71.00
2018-08-28T02:03:12.223Z,71.06
2018-08-28T02:05:05.138Z,70.72
2018-08-28T02:06:05.162Z,71.00
2018-08-28T02:07:58.078Z,70.62
2018-08-28T02:08:58.099Z,70.72
2018-08-28T02:10:51.003Z,70.78
2018-08-28T02:11:51.025Z,70.62
2018-08-28T02:13:43.944Z,70.49
2018-08-28T02:14:43.957Z,70.49
2018-08-28T02:16:36.867Z,70.72
2018-08-28T02:17:36.886Z,71.19
2018-08-28T02:19:29.808Z,71.19
2018-08-28T02:20:29.819Z,70.43
2018-08-28T02:22:22.735Z,70.87
2018-08-28T02:23:22.753Z,71.10
2018-08-28T02:25:15.835Z,70.90
2018-08-28T02:26:15.850Z,70.52
2018-08-28T02:28:08.778Z,70.33
2018-08-28T02:29:08.803Z,70.72
2018-08-28T02:31:01.702Z,70.62
2018-08-28T02:32:01.724Z,70.52
2018-08-28T02:33:54.820Z,70.52
2018-08-28T02:34:54.834Z,70.52
2018-08-28T02:36:47.745Z,70.62
2018-08-28T02:37:47.766Z,70.81
2018-08-28T02:39:40.687Z,71.19
2018-08-28T02:40:40.699Z,70.43
2018-08-28T02:42:33.627Z,70.97
2018-08-28T02:43:33.646Z,71.00
2018-08-28T02:45:26.543Z,70.68
2018-08-28T02:46:26.568Z,70.58
2018-08-28T02:48:19.491Z,71.00
2018-08-28T02:49:19.503Z,71.16
2018-08-28T02:51:12.414Z,70.72
2018-08-28T02:52:12.434Z,71.10
2018-08-28T02:54:05.359Z,70.97
2018-08-28T02:55:05.368Z,70.49
2018-08-28T02:56:58.275Z,70.72
2018-08-28T02:57:58.306Z,70.52
2018-08-28T02:59:51.218Z,71.06
2018-08-28T03:00:51.229Z,70.90
2018-08-28T03:02:44.144Z,71.16
2018-08-28T03:03:44.165Z,71.16
2018-08-28T03:05:37.085Z,70.97
2018-08-28T03:06:37.091Z,71.25
2018-08-28T03:08:30.015Z,70.97
2018-08-28T03:09:30.028Z,71.45
2018-08-28T03:11:22.976Z,71.25
2018-08-28T03:12:22.959Z,71.35
2018-08-28T03:14:15.868Z,70.87
2018-08-28T03:15:15.891Z,70.87
2018-08-28T03:17:08.806Z,71.64
2018-08-28T03:18:08.821Z,70.87
2018-08-28T03:20:01.751Z,71.35
2018-08-28T03:21:01.756Z,71.19
2018-08-28T03:22:54.687Z,70.97
2018-08-28T03:23:54.690Z,71.25
2018-08-28T03:25:47.604Z,71.06
2018-08-28T03:26:47.631Z,71.25
2018-08-28T03:28:40.549Z,71.25
2018-08-28T03:29:40.554Z,70.97
2018-08-28T03:31:33.466Z,71.16
2018-08-28T03:32:33.493Z,71.35
2018-08-28T03:34:26.429Z,70.87
2018-08-28T03:35:26.447Z,71.16
2018-08-28T03:37:19.351Z,71.64
2018-08-28T03:38:19.375Z,71.58
2018-08-28T03:40:12.293Z,71.45
2018-08-28T03:41:12.306Z,71.55
2018-08-28T03:43:05.225Z,71.25
2018-08-28T03:44:05.238Z,71.64
2018-08-28T03:45:58.149Z,71.35
2018-08-28T03:46:58.175Z,71.35
2018-08-28T03:48:51.092Z,71.25
2018-08-28T03:49:51.106Z,71.55
2018-08-28T03:51:44.019Z,71.45
2018-08-28T03:52:44.038Z,71.64
2018-08-28T03:54:36.956Z,71.64
2018-08-28T03:55:36.974Z,71.64
2018-08-28T03:57:29.881Z,71.45
2018-08-28T03:58:29.903Z,71.64
2018-08-28T04:00:22.820Z,71.35
2018-08-28T04:01:22.838Z,71.83
2018-08-28T04:03:15.753Z,71.45
2018-08-28T04:04:15.766Z,71.35
2018-08-28T04:06:08.682Z,71.45
2018-08-28T04:07:08.701Z,71.35
2018-08-28T04:09:01.619Z,72.22
2018-08-28T04:10:01.632Z,72.12
2018-08-28T04:11:54.542Z,72.22
2018-08-28T04:12:54.565Z,71.64
2018-08-28T04:14:47.485Z,72.31
2018-08-28T04:15:47.498Z,72.12
2018-08-28T04:17:40.408Z,71.93
2018-08-28T04:18:40.428Z,71.83
2018-08-28T04:20:33.511Z,72.31
2018-08-28T04:21:33.539Z,71.73
2018-08-28T04:23:26.443Z,72.22
2018-08-28T04:24:26.456Z,72.31
2018-08-28T04:26:19.365Z,72.31
2018-08-28T04:27:19.388Z,72.60
2018-08-28T04:29:12.308Z,72.22
2018-08-28T04:30:12.324Z,72.22
2018-08-28T04:32:05.230Z,72.50
2018-08-28T04:33:05.250Z,72.22
2018-08-28T04:34:58.183Z,72.69
2018-08-28T04:35:58.197Z,72.50
2018-08-28T04:37:51.108Z,71.93
2018-08-28T04:38:51.130Z,72.50
2018-08-28T04:40:44.055Z,72.50
2018-08-28T04:41:44.085Z,72.22
2018-08-28T04:43:36.997Z,72.22
2018-08-28T04:44:37.015Z,72.22
2018-08-28T04:46:29.931Z,72.22
2018-08-28T04:47:29.959Z,72.22
2018-08-28T04:49:22.876Z,72.22
2018-08-28T04:50:22.886Z,72.31
2018-08-28T04:52:15.798Z,72.22
2018-08-28T04:53:15.821Z,72.22
2018-08-28T04:55:09.735Z,72.22
2018-08-28T04:56:09.747Z,72.22
2018-08-28T04:58:02.657Z,72.22
2018-08-28T04:59:02.678Z,72.12
2018-08-28T05:00:55.641Z,72.25
2018-08-28T05:01:55.616Z,72.12
2018-08-28T05:03:48.534Z,72.02
2018-08-28T05:04:48.541Z,71.48
2018-08-28T05:06:41.463Z,72.16
2018-08-28T05:07:41.494Z,71.87
2018-08-28T05:09:34.404Z,71.83
2018-08-28T05:10:34.421Z,72.34
2018-08-28T05:12:27.331Z,72.44
2018-08-28T05:13:27.353Z,72.44
2018-08-28T05:15:20.286Z,71.87
2018-08-28T05:16:20.303Z,72.73
2018-08-28T05:18:13.211Z,71.87
2018-08-28T05:19:13.239Z,71.67
2018-08-28T05:21:06.164Z,72.16
2018-08-28T05:22:06.177Z,72.44
2018-08-28T05:23:59.094Z,72.44
2018-08-28T05:24:59.108Z,72.54
2018-08-28T05:26:52.066Z,72.54
2018-08-28T05:27:52.040Z,72.16
2018-08-28T05:29:45.164Z,72.16
2018-08-28T05:30:44.976Z,72.34
2018-08-28T05:32:37.883Z,72.44
2018-08-28T05:33:37.916Z,72.44
2018-08-28T05:35:30.824Z,72.34
2018-08-28T05:36:30.838Z,72.44
2018-08-28T05:38:23.751Z,72.64
2018-08-28T05:39:23.768Z,72.25
2018-08-28T05:41:16.691Z,72.25
2018-08-28T05:42:16.699Z,71.77
2018-08-28T05:44:09.626Z,71.58
2018-08-28T05:45:09.636Z,71.58
2018-08-28T05:47:02.583Z,71.58
2018-08-28T05:48:02.602Z,71.81
2018-08-28T05:49:55.522Z,71.61
2018-08-28T05:50:55.534Z,71.71
2018-08-28T05:52:48.452Z,72.19
2018-08-28T05:53:48.471Z,72.29
2018-08-28T05:55:41.400Z,71.61
2018-08-28T05:56:41.403Z,71.52
2018-08-28T05:58:34.871Z,71.71
2018-08-28T05:59:34.359Z,71.52
2018-08-28T06:01:27.291Z,71.61
2018-08-28T06:02:27.270Z,71.61
2018-08-28T06:04:20.194Z,72.19
2018-08-28T06:05:20.206Z,71.61
2018-08-28T06:07:13.303Z,71.61
2018-08-28T06:08:13.324Z,71.33
2018-08-28T06:10:06.266Z,70.59
2018-08-28T06:11:06.281Z,70.59
2018-08-28T06:12:59.198Z,70.21
2018-08-28T06:13:59.222Z,70.30
2018-08-28T06:15:52.142Z,70.59
2018-08-28T06:16:52.157Z,70.40
2018-08-28T06:18:45.076Z,70.50
2018-08-28T06:19:45.099Z,69.92
2018-08-28T06:21:38.020Z,70.01
2018-08-28T06:22:38.033Z,70.11
2018-08-28T06:24:30.956Z,70.30
2018-08-28T06:25:30.967Z,70.24
2018-08-28T06:27:23.879Z,70.24
2018-08-28T06:28:23.904Z,69.76
2018-08-28T06:30:16.826Z,69.57
2018-08-28T06:31:16.842Z,69.09
2018-08-28T06:33:09.756Z,69.47
2018-08-28T06:34:09.779Z,68.80
2018-08-28T06:36:02.700Z,68.90
2018-08-28T06:37:02.716Z,69.18
2018-08-28T06:38:55.633Z,69.67
2018-08-28T06:39:55.650Z,69.09
2018-08-28T06:41:48.572Z,68.54
2018-08-28T06:42:48.588Z,68.54
2018-08-28T06:44:41.513Z,68.54
2018-08-28T06:45:41.526Z,68.54
2018-08-28T06:47:34.991Z,68.44
2018-08-28T06:48:34.464Z,68.84
2018-08-28T06:50:27.413Z,67.97
2018-08-28T06:51:27.401Z,67.68
2018-08-28T06:53:20.331Z,68.06
2018-08-28T06:54:20.579Z,68.16
2018-08-28T06:56:14.268Z,67.77
2018-08-28T06:57:14.283Z,67.77
2018-08-28T06:59:07.198Z,67.19
2018-08-28T07:00:07.227Z,67.19
2018-08-28T07:02:00.150Z,67.52
2018-08-28T07:03:00.169Z,66.75
2018-08-28T07:04:53.115Z,67.52
2018-08-28T07:05:53.126Z,66.94
2018-08-28T07:07:46.051Z,65.78
2018-08-28T07:08:46.079Z,66.36
2018-08-28T07:10:39.000Z,66.55
2018-08-28T07:11:39.014Z,66.94
2018-08-28T07:13:31.933Z,66.75
2018-08-28T07:14:31.955Z,67.00
2018-08-28T07:16:24.902Z,67.39
2018-08-28T07:17:24.908Z,67.87
2018-08-28T07:19:18.166Z,68.29
2018-08-28T07:20:17.850Z,68.38
2018-08-28T07:22:10.791Z,67.52
2018-08-28T07:23:10.793Z,67.23
2018-08-28T07:25:03.714Z,66.88
2018-08-28T07:26:03.832Z,66.88
2018-08-28T07:27:56.646Z,66.01
2018-08-28T07:28:56.670Z,66.20
2018-08-28T07:30:49.596Z,65.24
2018-08-28T07:31:49.693Z,65.24
2018-08-28T07:33:42.537Z,65.47
2018-08-28T07:34:42.646Z,65.47
2018-08-28T07:36:35.486Z,64.40
2018-08-28T07:37:35.639Z,64.89
2018-08-28T07:39:28.415Z,64.79
2018-08-28T07:40:28.445Z,65.85
2018-08-28T07:42:21.392Z,65.27
2018-08-28T07:43:21.402Z,65.56
2018-08-28T07:45:14.326Z,64.40
2018-08-28T07:46:14.342Z,64.21
2018-08-28T07:48:07.283Z,65.17
2018-08-28T07:49:07.285Z,64.40
2018-08-28T07:51:00.211Z,64.50
2018-08-28T07:52:00.228Z,64.98
2018-08-28T07:53:53.176Z,65.66
2018-08-28T07:54:53.165Z,65.47
2018-08-28T07:56:46.092Z,65.01
2018-08-28T07:57:46.109Z,64.53
2018-08-28T07:59:39.253Z,64.53
2018-08-28T08:00:39.258Z,63.95
2018-08-28T08:02:32.185Z,63.37
2018-08-28T08:03:32.201Z,64.05
2018-08-28T08:05:25.130Z,63.76
2018-08-28T08:06:25.161Z,64.34
2018-08-28T08:08:18.063Z,63.37
2018-08-28T08:09:18.087Z,63.67
2018-08-28T08:11:11.021Z,63.28
2018-08-28T08:12:11.033Z,63.18
2018-08-28T08:14:03.983Z,63.70
2018-08-28T08:15:04.024Z,63.60
2018-08-28T08:16:57.005Z,61.86
2018-08-28T08:17:56.970Z,61.74
2018-08-28T08:19:49.943Z,63.28
2018-08-28T08:20:49.947Z,63.95
2018-08-28T08:22:42.931Z,62.92
2018-08-28T08:23:42.927Z,63.12
2018-08-28T08:25:35.845Z,62.82
2018-08-28T08:26:35.920Z,62.66
2018-08-28T08:28:28.881Z,62.47
2018-08-28T08:29:28.921Z,62.08
2018-08-28T08:31:21.973Z,61.63
2018-08-28T08:32:21.863Z,61.05
2018-08-28T08:34:14.774Z,60.47
2018-08-28T08:35:14.853Z,60.50
2018-08-28T08:37:07.839Z,60.69
2018-08-28T08:38:07.764Z,59.92
2018-08-28T08:40:00.685Z,59.56
2018-08-28T08:41:00.749Z,59.28
2018-08-28T08:42:53.701Z,59.08
2018-08-28T08:43:53.712Z,58.12
2018-08-28T08:45:47.584Z,58.70
2018-08-28T08:46:47.638Z,58.60
2018-08-28T08:48:41.549Z,57.63
2018-08-28T08:49:41.567Z,58.31
2018-08-28T08:51:34.523Z,58.80
2018-08-28T08:52:34.530Z,57.66
2018-08-28T08:54:27.425Z,57.37
2018-08-28T08:55:27.466Z,57.28
2018-08-28T08:57:20.524Z,58.24
2018-08-28T08:58:20.463Z,57.11
2018-08-28T09:00:13.384Z,56.11
2018-08-28T09:01:13.398Z,56.30
2018-08-28T09:03:06.375Z,55.92
2018-08-28T09:04:06.425Z,56.50
2018-08-28T09:06:00.405Z,56.82
2018-08-28T09:07:00.392Z,56.82
2018-08-28T09:08:53.210Z,55.66
2018-08-28T09:09:53.291Z,55.40
2018-08-28T09:11:46.233Z,55.40
2018-08-28T09:12:46.235Z,55.88
2018-08-28T09:14:39.148Z,53.45
2018-08-28T09:15:39.168Z,54.13
2018-08-28T09:17:32.114Z,54.52
2018-08-28T09:18:32.130Z,54.03
2018-08-28T09:20:25.072Z,55.10
2018-08-28T09:21:25.083Z,55.40
2018-08-28T09:23:18.005Z,55.27
2018-08-28T09:24:18.014Z,54.52
2018-08-28T09:26:10.969Z,55.68
2018-08-28T09:27:11.007Z,54.52
2018-08-28T09:29:03.925Z,54.13
2018-08-28T09:30:03.987Z,54.03
2018-08-28T09:31:56.911Z,54.23
2018-08-28T09:32:56.909Z,54.23
2018-08-28T09:34:49.865Z,55.22
2018-08-28T09:35:49.829Z,54.13
2018-08-28T09:37:42.838Z,54.55
2018-08-28T09:38:42.845Z,54.06
2018-08-28T09:40:35.695Z,53.49
2018-08-28T09:41:35.723Z,52.61
2018-08-28T09:43:28.760Z,52.71
2018-08-28T09:44:28.697Z,53.12
2018-08-28T09:46:21.662Z,53.49
2018-08-28T09:47:21.643Z,53.61
2018-08-28T09:49:14.580Z,52.44
2018-08-28T09:50:14.637Z,52.25
2018-08-28T09:52:07.610Z,52.61
2018-08-28T09:53:07.575Z,53.39
2018-08-28T09:55:00.493Z,53.87
2018-08-28T09:56:00.507Z,52.54
2018-08-28T09:57:53.513Z,51.06
2018-08-28T09:58:53.449Z,52.39
2018-08-28T10:00:46.355Z,53.36
2018-08-28T10:01:46.438Z,53.65
2018-08-28T10:03:39.429Z,53.55
2018-08-28T10:04:39.366Z,53.75
2018-08-28T10:06:32.271Z,53.55
2018-08-28T10:07:32.326Z,53.85
2018-08-28T10:09:25.223Z,53.75
2018-08-28T10:10:25.266Z,53.65
2018-08-28T10:12:18.243Z,53.72
2018-08-28T10:13:18.215Z,54.49
2018-08-28T10:15:11.125Z,54.66
2018-08-28T10:16:11.148Z,54.57
2018-08-28T10:18:04.200Z,55.82
2018-08-28T10:19:04.117Z,56.11
2018-08-28T10:20:57.063Z,56.70
2018-08-28T10:21:57.070Z,56.40
2018-08-28T10:23:49.989Z,55.73
2018-08-28T10:24:50.024Z,55.53
2018-08-28T10:26:42.961Z,56.21
2018-08-28T10:27:42.970Z,55.53
2018-08-28T10:29:35.903Z,55.63
2018-08-28T10:30:35.917Z,55.53
2018-08-28T10:32:28.813Z,55.15
2018-08-28T10:33:28.831Z,55.05
2018-08-28T10:35:21.788Z,55.24
2018-08-28T10:36:21.819Z,54.85
2018-08-28T10:38:14.782Z,54.27
2018-08-28T10:39:14.749Z,54.17
2018-08-28T10:41:07.684Z,55.15
2018-08-28T10:42:07.688Z,53.59
2018-08-28T10:44:00.643Z,53.89
2018-08-28T10:45:00.630Z,54.57
2018-08-28T10:46:53.677Z,54.57
2018-08-28T10:47:53.589Z,55.05
2018-08-28T10:49:46.480Z,54.75
2018-08-28T10:50:46.508Z,54.47
2018-08-28T10:52:39.452Z,55.24
2018-08-28T10:53:39.974Z,55.05
2018-08-28T10:55:32.388Z,55.17
2018-08-28T10:56:32.413Z,54.69
2018-08-28T10:58:25.433Z,53.94
2018-08-28T10:59:25.341Z,53.94
2018-08-28T11:01:19.767Z,52.66
2018-08-28T11:02:18.351Z,53.72
2018-08-28T11:04:11.290Z,53.04
2018-08-28T11:05:11.267Z,53.72
2018-08-28T11:07:04.236Z,54.01
2018-08-28T11:08:04.219Z,53.91
2018-08-28T11:09:57.140Z,53.04
2018-08-28T11:10:57.213Z,53.63
2018-08-28T11:12:50.194Z,53.43
2018-08-28T11:13:50.146Z,53.14
2018-08-28T11:15:43.096Z,52.85
2018-08-28T11:16:43.096Z,52.46
2018-08-28T11:18:36.063Z,51.78
2018-08-28T11:19:36.036Z,51.81
2018-08-28T11:21:28.966Z,52.00
2018-08-28T11:22:28.959Z,52.00
2018-08-28T11:24:21.957Z,52.49
2018-08-28T11:25:21.920Z,52.20
2018-08-28T11:27:14.832Z,52.20
2018-08-28T11:28:14.922Z,51.52
2018-08-28T11:30:07.849Z,52.46
2018-08-28T11:31:07.826Z,52.66
2018-08-28T11:33:00.789Z,52.46
2018-08-28T11:34:00.756Z,53.33
2018-08-28T11:35:53.671Z,53.23
2018-08-28T11:36:53.710Z,53.72
2018-08-28T11:38:46.675Z,52.95
2018-08-28T11:39:46.686Z,53.33
2018-08-28T11:41:39.614Z,51.40
2018-08-28T11:42:39.651Z,51.88
2018-08-28T11:44:32.605Z,52.56
2018-08-28T11:45:32.591Z,52.44
2018-08-28T11:47:25.511Z,52.14
2018-08-28T11:48:25.524Z,52.34
2018-08-28T11:50:18.578Z,51.98
2018-08-28T11:51:18.471Z,51.47
2018-08-28T11:53:11.556Z,51.56
2018-08-28T11:54:11.465Z,51.28
2018-08-28T11:56:04.391Z,52.12
2018-08-28T11:57:04.390Z,52.44
2018-08-28T11:58:57.363Z,52.92
2018-08-28T11:59:57.326Z,53.02
2018-08-28T12:01:50.307Z,53.69
2018-08-28T12:02:50.300Z,53.02
2018-08-28T12:04:43.207Z,52.24
2018-08-28T12:05:43.247Z,52.73
2018-08-28T12:07:36.169Z,51.40
2018-08-28T12:08:36.179Z,51.20
2018-08-28T12:10:29.204Z,50.26
2018-08-28T12:11:29.143Z,49.65
2018-08-28T12:13:22.067Z,49.68
2018-08-28T12:14:22.098Z,49.49
2018-08-28T12:16:15.033Z,49.77
2018-08-28T12:17:15.005Z,48.93
2018-08-28T12:19:08.028Z,49.80
2018-08-28T12:20:08.031Z,49.51
2018-08-28T12:22:00.882Z,48.95
2018-08-28T12:23:00.976Z,48.95
2018-08-28T12:25:01.007Z,47.62
2018-08-28T12:25:54.440Z,47.13
2018-08-28T12:27:46.846Z,47.42
2018-08-28T12:28:46.890Z,47.23
2018-08-28T12:30:39.834Z,46.96
2018-08-28T12:31:39.805Z,45.51
2018-08-28T12:33:32.849Z,45.12
2018-08-28T12:34:32.738Z,44.71
2018-08-28T12:36:25.661Z,45.17
2018-08-28T12:37:25.687Z,45.95
2018-08-28T12:39:18.717Z,47.11
2018-08-28T12:40:18.631Z,46.82
2018-08-28T12:42:11.578Z,45.68
2018-08-28T12:43:11.633Z,45.87
2018-08-28T12:45:04.608Z,44.71
2018-08-28T12:46:04.577Z,44.61
2018-08-28T12:47:57.486Z,44.64
2018-08-28T12:48:57.522Z,45.41
2018-08-28T12:50:50.543Z,45.24
2018-08-28T12:51:50.482Z,44.00
2018-08-28T12:53:43.480Z,43.30
2018-08-28T12:54:43.507Z,43.78
2018-08-28T12:56:36.367Z,43.86
2018-08-28T12:57:36.392Z,43.08
2018-08-28T12:59:29.390Z,43.37
2018-08-28T13:00:29.454Z,43.35
2018-08-28T13:02:22.382Z,44.32
2018-08-28T13:03:22.283Z,44.05
2018-08-28T13:05:15.326Z,42.99
2018-08-28T13:06:15.289Z,42.69
2018-08-28T13:08:08.180Z,43.95
2018-08-28T13:09:08.230Z,42.96
2018-08-28T13:11:01.166Z,42.38
2018-08-28T13:12:01.175Z,41.99
2018-08-28T13:13:54.125Z,41.22
2018-08-28T13:14:54.270Z,39.59
2018-08-28T13:16:47.058Z,38.60
2018-08-28T13:17:47.096Z,38.62
2018-08-28T13:19:40.049Z,38.81
2018-08-28T13:20:40.042Z,39.69
2018-08-28T13:22:32.957Z,40.97
2018-08-28T13:23:32.971Z,41.45
2018-08-28T13:25:25.976Z,42.05
2018-08-28T13:26:25.914Z,41.28
2018-08-28T13:28:18.866Z,39.14
2018-08-28T13:29:19.022Z,39.62
2018-08-28T13:31:11.876Z,40.01
2018-08-28T13:32:11.884Z,40.42
2018-08-28T13:34:04.779Z,39.26
2018-08-28T13:35:04.810Z,38.96
2018-08-28T13:36:57.759Z,39.22
2018-08-28T13:37:57.792Z,40.09
2018-08-28T13:39:50.748Z,40.95
2018-08-28T13:40:50.790Z,41.72
2018-08-28T13:42:44.919Z,41.89
2018-08-28T13:43:43.739Z,41.72
2018-08-28T13:45:36.749Z,42.30
2018-08-28T13:46:36.693Z,41.72
2018-08-28T13:48:29.555Z,41.43
2018-08-28T13:49:30.127Z,42.50
2018-08-28T13:51:22.599Z,42.67
2018-08-28T13:52:22.621Z,43.06
2018-08-28T13:54:15.644Z,43.54
2018-08-28T13:55:15.543Z,43.64
2018-08-28T13:57:08.423Z,42.77
2018-08-28T13:58:08.468Z,42.96
2018-08-28T14:00:01.474Z,43.16
2018-08-28T14:01:01.406Z,42.96
2018-08-28T14:02:54.345Z,42.19
2018-08-28T14:03:54.390Z,42.67
2018-08-28T14:05:47.308Z,42.86
2018-08-28T14:06:47.295Z,43.47
2018-08-28T14:08:40.256Z,42.69
2018-08-28T14:09:40.285Z,42.60
2018-08-28T14:11:33.298Z,42.69
2018-08-28T14:12:33.237Z,41.92
2018-08-28T14:14:26.188Z,42.21
2018-08-28T14:15:26.207Z,42.38
2018-08-28T14:17:19.123Z,42.30
2018-08-28T14:18:19.130Z,42.21
2018-08-28T14:20:12.164Z,42.60
2018-08-28T14:21:12.058Z,42.77
2018-08-28T14:23:05.016Z,43.52
2018-08-28T14:24:05.070Z,43.23
2018-08-28T14:25:57.976Z,44.59
2018-08-28T14:26:57.990Z,44.20
2018-08-28T14:28:50.996Z,43.13
2018-08-28T14:29:50.953Z,43.13
2018-08-28T14:31:44.123Z,43.82
2018-08-28T14:32:44.011Z,42.85
2018-08-28T14:34:36.934Z,43.82
2018-08-28T14:35:37.023Z,43.13
2018-08-28T14:37:29.877Z,44.49
2018-08-28T14:38:29.901Z,44.42
2018-08-28T14:40:22.910Z,43.45
2018-08-28T14:41:22.856Z,43.27
2018-08-28T14:43:15.773Z,42.21
2018-08-28T14:44:15.843Z,42.02
2018-08-28T14:46:08.734Z,41.64
2018-08-28T14:47:08.764Z,42.50
2018-08-28T14:49:01.667Z,42.52
2018-08-28T14:50:01.911Z,41.63
2018-08-28T14:51:54.833Z,41.72
2018-08-28T14:52:54.854Z,41.92
2018-08-28T14:54:47.807Z,42.11
2018-08-28T14:55:47.823Z,42.11
2018-08-28T14:57:40.747Z,41.43
2018-08-28T14:58:40.779Z,42.02
2018-08-28T15:00:33.710Z,42.60
2018-08-28T15:01:33.737Z,42.30
2018-08-28T15:03:26.650Z,42.29
2018-08-28T15:04:26.677Z,43.06
2018-08-28T15:06:19.622Z,43.06
2018-08-28T15:07:19.637Z,42.57
2018-08-28T15:09:12.567Z,42.57
2018-08-28T15:10:12.589Z,43.16
2018-08-28T15:12:05.521Z,43.06
2018-08-28T15:13:05.543Z,42.96
2018-08-28T15:14:58.670Z,43.06
2018-08-28T15:15:58.691Z,42.86
2018-08-28T15:17:51.768Z,43.35
2018-08-28T15:18:51.799Z,43.06
2018-08-28T15:20:44.737Z,43.45
2018-08-28T15:21:44.752Z,43.84
2018-08-28T15:23:37.671Z,43.45
2018-08-28T15:24:37.702Z,43.82
2018-08-28T15:26:30.623Z,44.01
2018-08-28T15:27:30.709Z,44.30
2018-08-28T15:29:23.565Z,43.91
2018-08-28T15:30:23.600Z,44.30
2018-08-28T15:32:16.533Z,44.49
2018-08-28T15:33:16.548Z,42.55
2018-08-28T15:35:09.474Z,42.96
2018-08-28T15:36:09.495Z,42.96
2018-08-28T15:38:02.420Z,42.48
2018-08-28T15:39:02.442Z,43.16
2018-08-28T15:40:55.373Z,42.57
2018-08-28T15:41:55.395Z,42.57
2018-08-28T15:43:48.314Z,42.46
2018-08-28T15:44:48.338Z,42.85
2018-08-28T15:46:41.278Z,42.94
2018-08-28T15:47:41.288Z,43.04
2018-08-28T15:49:34.200Z,43.13
2018-08-28T15:50:34.238Z,43.04
2018-08-28T15:52:27.165Z,43.21
2018-08-28T15:53:27.182Z,42.63
2018-08-28T15:55:20.117Z,42.94
2018-08-28T15:56:20.126Z,42.92
2018-08-28T15:58:13.042Z,42.94
2018-08-28T15:59:13.074Z,43.02
2018-08-28T16:01:06.005Z,43.82
2018-08-28T16:02:06.098Z,44.20
2018-08-28T16:03:58.953Z,43.89
2018-08-28T16:04:58.981Z,43.79
2018-08-28T16:06:51.913Z,43.79
2018-08-28T16:07:51.933Z,43.79
2018-08-28T16:09:44.855Z,44.18
2018-08-28T16:10:44.876Z,44.09
2018-08-28T16:12:37.819Z,44.18
2018-08-28T16:13:37.870Z,44.67
2018-08-28T16:15:30.752Z,43.00
2018-08-28T16:16:30.771Z,43.19
2018-08-28T16:18:23.697Z,43.77
2018-08-28T16:19:23.724Z,43.77
2018-08-28T16:21:16.651Z,44.09
2018-08-28T16:22:16.674Z,43.70
2018-08-28T16:24:09.591Z,43.79
2018-08-28T16:25:09.617Z,44.09
2018-08-28T16:27:02.543Z,44.37
2018-08-28T16:28:02.567Z,44.27
2018-08-28T16:29:55.506Z,42.92
2018-08-28T16:31:03.140Z,43.31
2018-08-28T16:32:48.437Z,42.82
2018-08-28T16:33:48.482Z,43.02
2018-08-28T16:35:41.418Z,43.50
2018-08-28T16:36:41.396Z,43.38
2018-08-28T16:38:34.315Z,43.70
2018-08-28T16:39:34.432Z,43.09
2018-08-28T16:41:27.269Z,43.38
2018-08-28T16:42:27.290Z,43.48
2018-08-28T16:44:20.206Z,43.96
2018-08-28T16:45:20.236Z,43.87
2018-08-28T16:47:13.172Z,44.74
2018-08-28T16:48:13.191Z,44.16
2018-08-28T16:50:06.172Z,44.16
2018-08-28T16:51:06.127Z,44.45
2018-08-28T16:52:59.079Z,44.33
2018-08-28T16:53:59.096Z,44.53
2018-08-28T16:55:52.084Z,45.20
2018-08-28T16:56:52.040Z,44.62
2018-08-28T16:58:44.969Z,44.72
2018-08-28T16:59:45.008Z,44.72
2018-08-28T17:01:38.032Z,44.43
2018-08-28T17:02:37.962Z,44.81
2018-08-28T17:04:30.868Z,44.62
2018-08-28T17:05:30.900Z,44.91
2018-08-28T17:07:23.973Z,44.91
2018-08-28T17:08:23.993Z,44.72
2018-08-28T17:10:16.913Z,44.43
2018-08-28T17:11:16.934Z,44.81
2018-08-28T17:13:09.871Z,44.91
2018-08-28T17:14:09.886Z,44.81
2018-08-28T17:16:02.833Z,44.81
2018-08-28T17:17:02.853Z,45.10
2018-08-28T17:18:55.774Z,44.79
2018-08-28T17:19:55.796Z,44.79
2018-08-28T17:21:49.893Z,44.98
2018-08-28T17:22:48.737Z,44.98
2018-08-28T17:24:41.696Z,44.98
2018-08-28T17:25:41.689Z,44.89
2018-08-28T17:27:35.615Z,45.66
2018-08-28T17:28:35.634Z,44.89
2018-08-28T17:30:28.560Z,45.76
2018-08-28T17:31:28.579Z,45.18
2018-08-28T17:33:21.623Z,45.66
2018-08-28T17:34:21.545Z,45.66
2018-08-28T17:36:14.469Z,45.37
2018-08-28T17:37:14.623Z,45.37
2018-08-28T17:39:07.415Z,46.03
2018-08-28T17:40:07.428Z,46.22
2018-08-28T17:42:00.588Z,46.15
2018-08-28T17:43:00.606Z,45.95
2018-08-28T17:44:53.524Z,47.21
2018-08-28T17:45:53.544Z,47.00
2018-08-28T17:47:46.466Z,46.90
2018-08-28T17:48:54.654Z,47.00
2018-08-28T17:50:39.410Z,47.58
2018-08-28T17:51:39.433Z,47.86
2018-08-28T17:53:32.369Z,48.32
2018-08-28T17:54:32.397Z,48.61
2018-08-28T17:56:25.311Z,49.00
2018-08-28T17:57:25.329Z,49.00
2018-08-28T17:59:18.327Z,49.10
2018-08-28T18:00:18.300Z,49.87
2018-08-28T18:02:11.199Z,50.13
2018-08-28T18:03:11.220Z,50.23
2018-08-28T18:05:04.141Z,50.71
2018-08-28T18:06:04.162Z,51.10
2018-08-28T18:07:57.123Z,51.27
2018-08-28T18:08:57.129Z,51.59
2018-08-28T18:10:50.200Z,52.14
2018-08-28T18:11:50.074Z,52.04
2018-08-28T18:13:43.025Z,52.53
2018-08-28T18:16:14.721Z,53.11
2018-08-28T18:17:14.706Z,53.47
2018-08-28T18:19:07.655Z,53.47
2018-08-28T18:20:07.654Z,52.98
2018-08-28T18:22:00.745Z,53.66
2018-08-28T18:23:00.762Z,53.75
2018-08-28T18:24:53.674Z,53.66
2018-08-28T18:25:53.698Z,53.66
2018-08-28T18:27:46.621Z,54.14
2018-08-28T18:28:46.688Z,54.24
2018-08-28T18:30:39.564Z,54.43
2018-08-28T18:31:39.588Z,54.53
2018-08-28T18:33:32.508Z,54.79
2018-08-28T18:34:32.562Z,54.88